sensor_id;sensor_type;location;lat;lon;timestamp;pressure;altitude;pressure_sealevel;temperature;humidity
65175;BME280;51761;42.126;24.752;2022-10-16T00:00:38;100336.41;;;12.68;70.35
65175;BME280;51761;42.126;24.752;2022-10-16T00:03:05;100301.88;;;12.48;69.86
65175;BME280;51761;42.126;24.752;2022-10-16T00:05:30;100330.53;;;12.59;69.85
65175;BME280;51761;42.126;24.752;2022-10-16T00:07:56;100322.66;;;12.47;70.11
65175;BME280;51761;42.126;24.752;2022-10-16T00:10:22;100320.69;;;12.44;70.11
65175;BME280;51761;42.126;24.752;2022-10-16T00:12:47;100337.00;;;12.53;70.50
65175;BME280;51761;42.126;24.752;2022-10-16T00:15:14;100344.31;;;12.43;70.93
65175;BME280;51761;42.126;24.752;2022-10-16T00:17:40;100293.00;;;12.20;71.07
65175;BME280;51761;42.126;24.752;2022-10-16T00:20:05;100337.50;;;12.44;71.62
65175;BME280;51761;42.126;24.752;2022-10-16T00:22:32;100330.97;;;12.24;71.55
65175;BME280;51761;42.126;24.752;2022-10-16T00:24:58;100253.06;;;11.79;71.81
65175;BME280;51761;42.126;24.752;2022-10-16T00:27:23;100336.97;;;12.23;72.11
65175;BME280;51761;42.126;24.752;2022-10-16T00:29:50;100334.66;;;12.14;72.64
65175;BME280;51761;42.126;24.752;2022-10-16T00:32:17;100337.19;;;12.02;73.26
65175;BME280;51761;42.126;24.752;2022-10-16T00:34:43;100339.94;;;12.09;73.16
65175;BME280;51761;42.126;24.752;2022-10-16T00:37:08;100299.34;;;11.87;72.93
65175;BME280;51761;42.126;24.752;2022-10-16T00:39:34;100355.09;;;12.11;73.03
65175;BME280;51761;42.126;24.752;2022-10-16T00:41:59;100321.66;;;11.94;72.78
65175;BME280;51761;42.126;24.752;2022-10-16T00:45:04;100353.47;;;12.14;73.01
65175;BME280;51761;42.126;24.752;2022-10-16T00:47:39;100352.28;;;12.11;72.85
65175;BME280;51761;42.126;24.752;2022-10-16T00:50:29;100357.56;;;12.06;73.25
65175;BME280;51761;42.126;24.752;2022-10-16T00:52:56;100361.94;;;12.07;73.69
65175;BME280;51761;42.126;24.752;2022-10-16T00:55:23;100358.41;;;11.99;73.86
65175;BME280;51761;42.126;24.752;2022-10-16T00:57:50;100361.16;;;12.03;73.89
65175;BME280;51761;42.126;24.752;2022-10-16T01:00:19;100366.34;;;12.08;74.12
65175;BME280;51761;42.126;24.752;2022-10-16T01:02:52;100369.25;;;11.94;74.50
65175;BME280;51761;42.126;24.752;2022-10-16T01:05:20;100377.66;;;11.94;74.56
65175;BME280;51761;42.126;24.752;2022-10-16T01:08:04;100389.66;;;11.94;74.55
65175;BME280;51761;42.126;24.752;2022-10-16T01:10:41;100393.69;;;11.90;74.46
65175;BME280;51761;42.126;24.752;2022-10-16T01:13:16;100397.22;;;11.97;74.74
65175;BME280;51761;42.126;24.752;2022-10-16T01:18:46;100400.66;;;11.71;75.34
65175;BME280;51761;42.126;24.752;2022-10-16T01:21:31;100314.41;;;11.05;76.23
65175;BME280;51761;42.126;24.752;2022-10-16T01:24:21;100394.75;;;11.55;76.50
65175;BME280;51761;42.126;24.752;2022-10-16T01:29:42;100358.31;;;11.08;77.25
65175;BME280;51761;42.126;24.752;2022-10-16T01:32:17;100340.91;;;10.80;77.75
65175;BME280;51761;42.126;24.752;2022-10-16T01:34:52;100403.28;;;11.34;78.00
65175;BME280;51761;42.126;24.752;2022-10-16T01:37:29;100402.53;;;11.27;78.07
65175;BME280;51761;42.126;24.752;2022-10-16T01:39:59;100410.59;;;11.14;78.52
65175;BME280;51761;42.126;24.752;2022-10-16T01:42:31;100402.97;;;11.15;78.56
65175;BME280;51761;42.126;24.752;2022-10-16T01:45:00;100412.66;;;10.97;79.02
65175;BME280;51761;42.126;24.752;2022-10-16T01:47:30;100375.69;;;10.68;79.24
65175;BME280;51761;42.126;24.752;2022-10-16T01:49:58;100418.59;;;11.09;79.37
65175;BME280;51761;42.126;24.752;2022-10-16T01:52:26;100430.56;;;11.16;79.02
65175;BME280;51761;42.126;24.752;2022-10-16T01:54:55;100428.16;;;11.15;79.09
65175;BME280;51761;42.126;24.752;2022-10-16T01:57:24;100437.00;;;10.99;79.00
65175;BME280;51761;42.126;24.752;2022-10-16T01:59:54;100396.06;;;10.65;79.69
65175;BME280;51761;42.126;24.752;2022-10-16T02:02:21;100431.41;;;10.99;79.63
65175;BME280;51761;42.126;24.752;2022-10-16T02:04:58;100417.50;;;10.89;80.24
65175;BME280;51761;42.126;24.752;2022-10-16T02:07:27;100419.50;;;10.92;79.88
65175;BME280;51761;42.126;24.752;2022-10-16T02:09:52;100423.88;;;10.86;80.14
65175;BME280;51761;42.126;24.752;2022-10-16T02:12:31;100421.22;;;10.48;81.81
65175;BME280;51761;42.126;24.752;2022-10-16T02:14:58;100424.84;;;10.52;80.42
65175;BME280;51761;42.126;24.752;2022-10-16T02:17:24;100422.00;;;10.59;80.60
65175;BME280;51761;42.126;24.752;2022-10-16T02:19:51;100409.34;;;10.09;81.81
65175;BME280;51761;42.126;24.752;2022-10-16T02:22:24;100430.06;;;10.18;82.06
65175;BME280;51761;42.126;24.752;2022-10-16T02:25:03;100392.59;;;10.23;81.47
65175;BME280;51761;42.126;24.752;2022-10-16T02:27:34;100432.41;;;10.41;81.46
65175;BME280;51761;42.126;24.752;2022-10-16T02:30:11;100425.28;;;10.26;81.59
65175;BME280;51761;42.126;24.752;2022-10-16T02:32:41;100429.66;;;10.34;82.28
65175;BME280;51761;42.126;24.752;2022-10-16T02:35:09;100418.47;;;10.37;80.87
65175;BME280;51761;42.126;24.752;2022-10-16T02:37:36;100445.59;;;10.26;80.90
65175;BME280;51761;42.126;24.752;2022-10-16T02:40:04;100447.19;;;10.34;80.93
65175;BME280;51761;42.126;24.752;2022-10-16T02:42:39;100404.16;;;10.25;80.08
65175;BME280;51761;42.126;24.752;2022-10-16T02:45:05;100445.16;;;10.56;80.00
65175;BME280;51761;42.126;24.752;2022-10-16T02:47:31;100411.75;;;10.21;79.96
65175;BME280;51761;42.126;24.752;2022-10-16T02:49:57;100420.09;;;10.17;80.48
65175;BME280;51761;42.126;24.752;2022-10-16T02:52:22;100448.81;;;10.25;80.22
65175;BME280;51761;42.126;24.752;2022-10-16T02:54:48;100459.97;;;10.25;80.02
65175;BME280;51761;42.126;24.752;2022-10-16T02:57:13;100455.97;;;10.40;79.98
65175;BME280;51761;42.126;24.752;2022-10-16T02:59:39;100456.75;;;10.37;79.89
65175;BME280;51761;42.126;24.752;2022-10-16T03:02:04;100458.78;;;10.36;80.02
65175;BME280;51761;42.126;24.752;2022-10-16T03:04:30;100432.47;;;10.13;79.50
65175;BME280;51761;42.126;24.752;2022-10-16T03:06:55;100456.78;;;10.30;80.11
65175;BME280;51761;42.126;24.752;2022-10-16T03:09:21;100459.16;;;10.42;79.75
65175;BME280;51761;42.126;24.752;2022-10-16T03:11:47;100373.88;;;9.71;80.15
65175;BME280;51761;42.126;24.752;2022-10-16T03:14:12;100452.78;;;10.41;79.92
65175;BME280;51761;42.126;24.752;2022-10-16T03:16:37;100457.50;;;10.62;79.52
65175;BME280;51761;42.126;24.752;2022-10-16T03:19:03;100474.25;;;10.72;79.03
65175;BME280;51761;42.126;24.752;2022-10-16T03:21:28;100455.13;;;10.60;79.49
65175;BME280;51761;42.126;24.752;2022-10-16T03:23:54;100465.53;;;10.49;79.50
65175;BME280;51761;42.126;24.752;2022-10-16T03:26:20;100443.19;;;10.46;79.74
65175;BME280;51761;42.126;24.752;2022-10-16T03:28:45;100468.25;;;10.74;79.44
65175;BME280;51761;42.126;24.752;2022-10-16T03:31:11;100461.47;;;10.71;79.13
65175;BME280;51761;42.126;24.752;2022-10-16T03:33:36;100470.25;;;10.73;79.24
65175;BME280;51761;42.126;24.752;2022-10-16T03:36:02;100490.19;;;10.72;79.82
65175;BME280;51761;42.126;24.752;2022-10-16T03:38:27;100443.94;;;10.64;79.57
65175;BME280;51761;42.126;24.752;2022-10-16T03:40:53;100475.41;;;10.85;79.70
65175;BME280;51761;42.126;24.752;2022-10-16T03:43:18;100447.13;;;10.62;79.69
65175;BME280;51761;42.126;24.752;2022-10-16T03:45:44;100452.31;;;10.64;79.82
65175;BME280;51761;42.126;24.752;2022-10-16T03:48:10;100448.75;;;10.60;80.11
65175;BME280;51761;42.126;24.752;2022-10-16T03:50:36;100484.16;;;10.91;79.67
65175;BME280;51761;42.126;24.752;2022-10-16T03:53:01;100466.25;;;10.71;79.47
65175;BME280;51761;42.126;24.752;2022-10-16T03:55:27;100488.56;;;10.88;79.78
65175;BME280;51761;42.126;24.752;2022-10-16T03:57:52;100499.72;;;10.88;79.87
65175;BME280;51761;42.126;24.752;2022-10-16T04:00:18;100491.00;;;10.83;80.08
65175;BME280;51761;42.126;24.752;2022-10-16T04:02:43;100498.97;;;10.74;80.25
65175;BME280;51761;42.126;24.752;2022-10-16T04:05:09;100463.50;;;10.57;80.40
65175;BME280;51761;42.126;24.752;2022-10-16T04:07:34;100494.19;;;10.71;80.73
65175;BME280;51761;42.126;24.752;2022-10-16T04:10:00;100500.56;;;10.75;80.43
65175;BME280;51761;42.126;24.752;2022-10-16T04:12:26;100494.19;;;10.74;80.36
65175;BME280;51761;42.126;24.752;2022-10-16T04:14:52;100465.91;;;10.55;80.46
65175;BME280;51761;42.126;24.752;2022-10-16T04:17:17;100493.41;;;10.67;80.46
65175;BME280;51761;42.126;24.752;2022-10-16T04:19:43;100483.47;;;10.52;80.69
65175;BME280;51761;42.126;24.752;2022-10-16T04:22:08;100468.72;;;10.41;80.83
65175;BME280;51761;42.126;24.752;2022-10-16T04:24:34;100477.09;;;10.44;80.68
65175;BME280;51761;42.126;24.752;2022-10-16T04:26:59;100484.72;;;10.19;81.45
65175;BME280;51761;42.126;24.752;2022-10-16T04:29:25;100468.78;;;10.09;81.45
65175;BME280;51761;42.126;24.752;2022-10-16T04:31:50;100468.72;;;9.95;81.85
65175;BME280;51761;42.126;24.752;2022-10-16T04:34:16;100482.28;;;10.00;82.39
65175;BME280;51761;42.126;24.752;2022-10-16T04:36:41;100497.06;;;10.11;82.39
65175;BME280;51761;42.126;24.752;2022-10-16T04:39:07;100465.16;;;9.95;82.51
65175;BME280;51761;42.126;24.752;2022-10-16T04:41:32;100462.75;;;9.97;82.39
65175;BME280;51761;42.126;24.752;2022-10-16T04:43:58;100491.50;;;10.22;82.27
65175;BME280;51761;42.126;24.752;2022-10-16T04:46:23;100496.66;;;10.20;82.32
65175;BME280;51761;42.126;24.752;2022-10-16T04:48:49;100500.25;;;10.03;82.70
65175;BME280;51761;42.126;24.752;2022-10-16T04:51:14;100497.47;;;10.13;82.65
65175;BME280;51761;42.126;24.752;2022-10-16T04:53:40;100510.22;;;10.18;82.57
65175;BME280;51761;42.126;24.752;2022-10-16T04:56:05;100471.91;;;9.97;82.25
65175;BME280;51761;42.126;24.752;2022-10-16T04:58:31;100515.44;;;10.23;82.73
65175;BME280;51761;42.126;24.752;2022-10-16T05:00:56;100519.00;;;10.06;82.21
65175;BME280;51761;42.126;24.752;2022-10-16T05:03:22;100517.34;;;9.91;82.96
65175;BME280;51761;42.126;24.752;2022-10-16T05:05:47;100529.28;;;9.81;83.52
65175;BME280;51761;42.126;24.752;2022-10-16T05:08:14;100524.91;;;9.87;82.82
65175;BME280;51761;42.126;24.752;2022-10-16T05:10:41;100526.91;;;9.90;82.71
65175;BME280;51761;42.126;24.752;2022-10-16T05:13:07;100505.38;;;9.69;82.73
65175;BME280;51761;42.126;24.752;2022-10-16T05:15:33;100539.69;;;9.98;82.60
65175;BME280;51761;42.126;24.752;2022-10-16T05:17:58;100528.16;;;10.45;80.98
65175;BME280;51761;42.126;24.752;2022-10-16T05:20:24;100510.25;;;11.52;77.63
65175;BME280;51761;42.126;24.752;2022-10-16T05:22:49;100539.28;;;12.81;71.32
65175;BME280;51761;42.126;24.752;2022-10-16T05:25:15;100536.19;;;13.42;67.70
65175;BME280;51761;42.126;24.752;2022-10-16T05:27:41;100517.59;;;14.34;63.64
65175;BME280;51761;42.126;24.752;2022-10-16T05:30:07;100545.81;;;14.96;61.62
65175;BME280;51761;42.126;24.752;2022-10-16T05:32:32;100523.66;;;14.98;60.98
65175;BME280;51761;42.126;24.752;2022-10-16T05:34:58;100557.16;;;15.35;60.39
65175;BME280;51761;42.126;24.752;2022-10-16T05:37:25;100559.44;;;15.79;58.64
65175;BME280;51761;42.126;24.752;2022-10-16T05:39:52;100559.53;;;16.27;56.72
65175;BME280;51761;42.126;24.752;2022-10-16T05:42:18;100567.94;;;16.78;54.85
65175;BME280;51761;42.126;24.752;2022-10-16T05:44:44;100578.19;;;17.17;53.84
65175;BME280;51761;42.126;24.752;2022-10-16T05:47:09;100551.94;;;17.32;52.91
65175;BME280;51761;42.126;24.752;2022-10-16T05:49:37;100574.75;;;17.53;52.19
65175;BME280;51761;42.126;24.752;2022-10-16T05:52:02;100584.19;;;17.19;53.20
65175;BME280;51761;42.126;24.752;2022-10-16T05:54:28;100594.44;;;17.13;53.49
65175;BME280;51761;42.126;24.752;2022-10-16T05:56:53;100565.56;;;16.77;53.67
65175;BME280;51761;42.126;24.752;2022-10-16T05:59:19;100592.00;;;16.83;53.61
65175;BME280;51761;42.126;24.752;2022-10-16T06:01:44;100565.63;;;15.90;56.01
65175;BME280;51761;42.126;24.752;2022-10-16T06:04:10;100565.28;;;15.88;56.66
65175;BME280;51761;42.126;24.752;2022-10-16T06:06:36;100582.38;;;16.96;54.25
65175;BME280;51761;42.126;24.752;2022-10-16T06:09:02;100599.66;;;17.58;52.45
65175;BME280;51761;42.126;24.752;2022-10-16T06:11:30;100570.03;;;17.63;51.25
65175;BME280;51761;42.126;24.752;2022-10-16T06:13:58;100604.78;;;17.48;51.85
65175;BME280;51761;42.126;24.752;2022-10-16T06:16:27;100597.44;;;17.78;51.07
65175;BME280;51761;42.126;24.752;2022-10-16T06:18:53;100569.09;;;17.94;56.18
65175;BME280;51761;42.126;24.752;2022-10-16T06:21:21;100593.72;;;19.06;61.42
65175;BME280;51761;42.126;24.752;2022-10-16T06:23:50;100590.81;;;19.65;63.34
65175;BME280;51761;42.126;24.752;2022-10-16T06:26:18;100604.16;;;20.29;60.68
65175;BME280;51761;42.126;24.752;2022-10-16T06:28:44;100605.94;;;20.44;56.09
65175;BME280;51761;42.126;24.752;2022-10-16T06:31:10;100596.38;;;20.99;52.21
65175;BME280;51761;42.126;24.752;2022-10-16T06:33:37;100611.06;;;21.06;48.39
65175;BME280;51761;42.126;24.752;2022-10-16T06:36:10;100615.22;;;21.32;54.24
65175;BME280;51761;42.126;24.752;2022-10-16T06:38:36;100594.47;;;20.96;57.60
65175;BME280;51761;42.126;24.752;2022-10-16T06:41:03;100591.84;;;21.46;54.33
65175;BME280;51761;42.126;24.752;2022-10-16T06:43:29;100619.31;;;22.03;54.19
65175;BME280;51761;42.126;24.752;2022-10-16T06:45:59;100613.50;;;21.80;48.56
65175;BME280;51761;42.126;24.752;2022-10-16T06:48:25;100625.34;;;21.78;47.62
65175;BME280;51761;42.126;24.752;2022-10-16T06:51:12;100632.75;;;22.03;44.26
65175;BME280;51761;42.126;24.752;2022-10-16T06:53:40;100631.19;;;21.93;43.31
65175;BME280;51761;42.126;24.752;2022-10-16T06:56:15;100621.56;;;21.63;42.71
65175;BME280;51761;42.126;24.752;2022-10-16T06:58:41;100616.84;;;21.69;43.91
65175;BME280;51761;42.126;24.752;2022-10-16T07:01:08;100638.47;;;21.85;45.04
65175;BME280;51761;42.126;24.752;2022-10-16T07:03:36;100644.91;;;22.12;42.54
65175;BME280;51761;42.126;24.752;2022-10-16T07:06:04;100640.84;;;22.63;45.32
65175;BME280;51761;42.126;24.752;2022-10-16T07:08:31;100644.56;;;22.28;41.90
65175;BME280;51761;42.126;24.752;2022-10-16T07:11:02;100645.19;;;22.41;42.80
65175;BME280;51761;42.126;24.752;2022-10-16T07:13:28;100615.25;;;21.86;41.66
65175;BME280;51761;42.126;24.752;2022-10-16T07:15:54;100629.56;;;21.38;42.90
65175;BME280;51761;42.126;24.752;2022-10-16T07:18:19;100653.00;;;21.78;43.78
65175;BME280;51761;42.126;24.752;2022-10-16T07:20:45;100605.09;;;21.49;44.62
65175;BME280;51761;42.126;24.752;2022-10-16T07:23:11;100627.53;;;21.29;43.59
65175;BME280;51761;42.126;24.752;2022-10-16T07:25:36;100654.69;;;21.48;43.55
65175;BME280;51761;42.126;24.752;2022-10-16T07:28:02;100651.53;;;21.46;43.18
65175;BME280;51761;42.126;24.752;2022-10-16T07:30:27;100653.13;;;21.47;43.14
65175;BME280;51761;42.126;24.752;2022-10-16T07:32:53;100639.56;;;21.60;42.71
65175;BME280;51761;42.126;24.752;2022-10-16T07:35:18;100644.97;;;21.85;41.73
65175;BME280;51761;42.126;24.752;2022-10-16T07:37:45;100648.13;;;21.87;41.69
65175;BME280;51761;42.126;24.752;2022-10-16T07:40:11;100627.41;;;21.78;42.35
65175;BME280;51761;42.126;24.752;2022-10-16T07:42:36;100639.53;;;22.14;41.41
65175;BME280;51761;42.126;24.752;2022-10-16T07:45:02;100625.00;;;22.12;41.95
65175;BME280;51761;42.126;24.752;2022-10-16T07:47:28;100645.16;;;22.50;41.33
65175;BME280;51761;42.126;24.752;2022-10-16T07:49:53;100638.59;;;22.67;41.12
65175;BME280;51761;42.126;24.752;2022-10-16T07:52:19;100648.66;;;22.77;41.25
65175;BME280;51761;42.126;24.752;2022-10-16T07:54:44;100621.28;;;22.48;41.32
65175;BME280;51761;42.126;24.752;2022-10-16T07:57:10;100640.63;;;22.67;40.90
65175;BME280;51761;42.126;24.752;2022-10-16T07:59:35;100604.88;;;22.98;40.06
65175;BME280;51761;42.126;24.752;2022-10-16T08:02:01;100643.50;;;22.67;40.90
65175;BME280;51761;42.126;24.752;2022-10-16T08:04:26;100638.56;;;22.76;42.45
65175;BME280;51761;42.126;24.752;2022-10-16T08:06:51;100647.06;;;22.85;41.59
65175;BME280;51761;42.126;24.752;2022-10-16T08:09:17;100649.19;;;22.99;40.99
65175;BME280;51761;42.126;24.752;2022-10-16T08:11:43;100641.41;;;23.09;40.87
65175;BME280;51761;42.126;24.752;2022-10-16T08:14:11;100643.50;;;23.32;40.56
65175;BME280;51761;42.126;24.752;2022-10-16T08:16:37;100641.38;;;23.41;40.69
65175;BME280;51761;42.126;24.752;2022-10-16T08:19:02;100643.13;;;23.39;39.92
65175;BME280;51761;42.126;24.752;2022-10-16T08:21:28;100636.00;;;23.81;40.48
65175;BME280;51761;42.126;24.752;2022-10-16T08:23:53;100619.22;;;23.60;39.21
65175;BME280;51761;42.126;24.752;2022-10-16T08:26:20;100643.50;;;23.93;38.94
65175;BME280;51761;42.126;24.752;2022-10-16T08:28:46;100630.81;;;23.71;38.92
65175;BME280;51761;42.126;24.752;2022-10-16T08:31:15;100578.22;;;23.72;39.20
65175;BME280;51761;42.126;24.752;2022-10-16T08:33:43;100636.16;;;23.78;39.37
65175;BME280;51761;42.126;24.752;2022-10-16T08:36:10;100620.78;;;23.99;38.47
65175;BME280;51761;42.126;24.752;2022-10-16T08:38:37;100639.00;;;24.16;37.51
65175;BME280;51761;42.126;24.752;2022-10-16T08:44:21;100637.03;;;24.22;38.32
65175;BME280;51761;42.126;24.752;2022-10-16T08:49:39;100639.38;;;24.23;37.50
65175;BME280;51761;42.126;24.752;2022-10-16T08:52:10;100641.28;;;24.26;37.59
65175;BME280;51761;42.126;24.752;2022-10-16T08:54:42;100644.13;;;24.40;37.19
65175;BME280;51761;42.126;24.752;2022-10-16T08:57:16;100636.91;;;24.45;36.86
65175;BME280;51761;42.126;24.752;2022-10-16T08:59:42;100627.38;;;24.48;37.18
65175;BME280;51761;42.126;24.752;2022-10-16T09:02:28;100613.06;;;24.48;34.94
65175;BME280;51761;42.126;24.752;2022-10-16T09:10:56;100640.31;;;24.92;36.45
65175;BME280;51761;42.126;24.752;2022-10-16T09:16:19;100632.59;;;25.13;34.39
65175;BME280;51761;42.126;24.752;2022-10-16T09:21:41;100609.25;;;25.34;33.00
65175;BME280;51761;42.126;24.752;2022-10-16T09:24:25;100640.06;;;25.10;33.46
65175;BME280;51761;42.126;24.752;2022-10-16T09:26:51;100550.59;;;24.07;34.49
65175;BME280;51761;42.126;24.752;2022-10-16T09:29:19;100627.66;;;24.35;35.25
65175;BME280;51761;42.126;24.752;2022-10-16T09:31:46;100628.84;;;24.72;37.51
65175;BME280;51761;42.126;24.752;2022-10-16T09:34:27;100632.09;;;24.65;34.63
65175;BME280;51761;42.126;24.752;2022-10-16T09:36:57;100628.44;;;24.79;33.64
65175;BME280;51761;42.126;24.752;2022-10-16T09:39:24;100604.63;;;24.68;33.79
65175;BME280;51761;42.126;24.752;2022-10-16T09:41:49;100625.97;;;24.87;32.80
65175;BME280;51761;42.126;24.752;2022-10-16T09:44:25;100615.31;;;24.87;33.91
65175;BME280;51761;42.126;24.752;2022-10-16T09:49:27;100606.44;;;24.85;32.74
65175;BME280;51761;42.126;24.752;2022-10-16T09:52:04;100606.44;;;24.85;33.07
65175;BME280;51761;42.126;24.752;2022-10-16T09:54:30;100613.22;;;25.22;32.14
65175;BME280;51761;42.126;24.752;2022-10-16T09:57:04;100599.34;;;25.15;32.15
65175;BME280;51761;42.126;24.752;2022-10-16T09:59:31;100599.19;;;25.04;32.34
65175;BME280;51761;42.126;24.752;2022-10-16T10:02:02;100587.88;;;24.95;33.21
65175;BME280;51761;42.126;24.752;2022-10-16T10:04:39;100592.16;;;24.85;32.49
65175;BME280;51761;42.126;24.752;2022-10-16T10:07:07;100595.75;;;25.00;31.72
65175;BME280;51761;42.126;24.752;2022-10-16T10:09:44;100592.97;;;25.06;32.27
65175;BME280;51761;42.126;24.752;2022-10-16T10:12:30;100590.66;;;25.44;29.84
65175;BME280;51761;42.126;24.752;2022-10-16T10:15:12;100588.50;;;25.39;29.43
65175;BME280;51761;42.126;24.752;2022-10-16T10:17:55;100586.22;;;25.23;30.09
65175;BME280;51761;42.126;24.752;2022-10-16T10:20:23;100589.03;;;25.03;30.07
65175;BME280;51761;42.126;24.752;2022-10-16T10:22:49;100581.28;;;24.89;30.72
65175;BME280;51761;42.126;24.752;2022-10-16T10:30:24;100529.00;;;24.83;31.25
65175;BME280;51761;42.126;24.752;2022-10-16T10:35:48;100571.50;;;25.30;30.32
65175;BME280;51761;42.126;24.752;2022-10-16T11:00:23;100557.25;;;24.61;30.60
65175;BME280;51761;42.126;24.752;2022-10-16T11:05:43;100553.81;;;24.57;31.50
65175;BME280;51761;42.126;24.752;2022-10-16T11:08:19;100552.03;;;24.45;31.44
65175;BME280;51761;42.126;24.752;2022-10-16T11:11:00;100513.34;;;24.44;31.01
65175;BME280;51761;42.126;24.752;2022-10-16T11:13:42;100522.00;;;24.84;30.49
65175;BME280;51761;42.126;24.752;2022-10-16T11:16:30;100537.44;;;25.12;30.23
65175;BME280;51761;42.126;24.752;2022-10-16T11:21:30;100535.00;;;25.45;30.05
65175;BME280;51761;42.126;24.752;2022-10-16T11:24:06;100529.72;;;25.38;28.78
65175;BME280;51761;42.126;24.752;2022-10-16T11:26:41;100524.38;;;25.46;29.52
65175;BME280;51761;42.126;24.752;2022-10-16T11:29:23;100522.56;;;25.08;29.35
65175;BME280;51761;42.126;24.752;2022-10-16T11:31:53;100444.50;;;24.08;30.16
65175;BME280;51761;42.126;24.752;2022-10-16T11:34:35;100527.84;;;24.75;30.30
65175;BME280;51761;42.126;24.752;2022-10-16T11:37:14;100517.09;;;24.50;30.22
65175;BME280;51761;42.126;24.752;2022-10-16T11:39:42;100487.41;;;24.48;30.17
65175;BME280;51761;42.126;24.752;2022-10-16T11:42:36;100515.06;;;24.71;29.70
65175;BME280;51761;42.126;24.752;2022-10-16T11:45:13;100513.53;;;24.41;30.09
65175;BME280;51761;42.126;24.752;2022-10-16T11:50:51;100499.09;;;24.64;30.30
65175;BME280;51761;42.126;24.752;2022-10-16T11:53:49;100522.03;;;25.24;29.43
65175;BME280;51761;42.126;24.752;2022-10-16T11:56:18;100524.28;;;25.40;29.35
65175;BME280;51761;42.126;24.752;2022-10-16T11:58:51;100527.50;;;25.48;29.52
65175;BME280;51761;42.126;24.752;2022-10-16T12:01:35;100529.34;;;25.51;29.75
65175;BME280;51761;42.126;24.752;2022-10-16T12:06:59;100525.13;;;25.46;29.28
65175;BME280;51761;42.126;24.752;2022-10-16T12:09:30;100523.53;;;25.40;29.37
65175;BME280;51761;42.126;24.752;2022-10-16T12:11:56;100525.13;;;25.46;29.37
65175;BME280;51761;42.126;24.752;2022-10-16T12:14:39;100471.41;;;25.10;29.11
65175;BME280;51761;42.126;24.752;2022-10-16T12:19:57;100492.63;;;25.04;28.88
65175;BME280;51761;42.126;24.752;2022-10-16T12:22:23;100495.78;;;24.86;29.18
65175;BME280;51761;42.126;24.752;2022-10-16T12:24:51;100487.91;;;24.61;29.92
65175;BME280;51761;42.126;24.752;2022-10-16T12:27:26;100434.56;;;24.52;29.86
65175;BME280;51761;42.126;24.752;2022-10-16T12:30:04;100516.50;;;25.01;29.76
65175;BME280;51761;42.126;24.752;2022-10-16T12:32:33;100514.38;;;24.96;29.56
65175;BME280;51761;42.126;24.752;2022-10-16T12:35:01;100497.13;;;25.10;29.25
65175;BME280;51761;42.126;24.752;2022-10-16T12:37:28;100523.72;;;24.96;29.19
65175;BME280;51761;42.126;24.752;2022-10-16T12:39:56;100523.22;;;24.98;28.80
65175;BME280;51761;42.126;24.752;2022-10-16T12:44:52;100524.19;;;24.75;29.85
65175;BME280;51761;42.126;24.752;2022-10-16T12:47:23;100526.38;;;24.31;30.58
65175;BME280;51761;42.126;24.752;2022-10-16T12:49:54;100533.00;;;24.71;29.87
65175;BME280;51761;42.126;24.752;2022-10-16T12:52:36;100528.09;;;24.57;30.58
65175;BME280;51761;42.126;24.752;2022-10-16T12:55:04;100504.97;;;24.41;30.19
65175;BME280;51761;42.126;24.752;2022-10-16T12:58:00;100525.00;;;24.75;30.78
65175;BME280;51761;42.126;24.752;2022-10-16T13:08:58;100530.69;;;23.69;31.22
65175;BME280;51761;42.126;24.752;2022-10-16T13:19:40;100533.22;;;23.38;31.63
65175;BME280;51761;42.126;24.752;2022-10-16T13:22:23;100540.78;;;23.41;32.07
65175;BME280;51761;42.126;24.752;2022-10-16T13:27:59;100479.16;;;23.43;31.30
65175;BME280;51761;42.126;24.752;2022-10-16T13:30:30;100543.13;;;23.95;30.59
65175;BME280;51761;42.126;24.752;2022-10-16T13:33:02;100540.41;;;23.62;31.32
65175;BME280;51761;42.126;24.752;2022-10-16T13:35:31;100497.34;;;23.08;32.00
65175;BME280;51761;42.126;24.752;2022-10-16T13:38:24;100545.22;;;23.42;31.16
65175;BME280;51761;42.126;24.752;2022-10-16T13:41:04;100544.63;;;23.38;31.50
65175;BME280;51761;42.126;24.752;2022-10-16T13:43:37;100537.25;;;23.46;31.25
65175;BME280;51761;42.126;24.752;2022-10-16T13:48:37;100529.22;;;23.21;32.88
65175;BME280;51761;42.126;24.752;2022-10-16T13:51:16;100519.44;;;23.36;31.54
65175;BME280;51761;42.126;24.752;2022-10-16T13:53:43;100532.13;;;23.35;31.69
65175;BME280;51761;42.126;24.752;2022-10-16T13:56:17;100538.44;;;22.92;32.45
65175;BME280;51761;42.126;24.752;2022-10-16T13:58:43;100532.44;;;22.90;32.52
65175;BME280;51761;42.126;24.752;2022-10-16T14:03:45;100528.97;;;23.10;32.39
65175;BME280;51761;42.126;24.752;2022-10-16T14:06:14;100498.22;;;22.76;32.45
65175;BME280;51761;42.126;24.752;2022-10-16T14:09:07;100538.31;;;22.87;32.57
65175;BME280;51761;42.126;24.752;2022-10-16T14:11:42;100546.47;;;23.03;32.31
65175;BME280;51761;42.126;24.752;2022-10-16T14:14:11;100541.72;;;23.00;32.43
65175;BME280;51761;42.126;24.752;2022-10-16T14:16:41;100547.13;;;22.98;32.34
65175;BME280;51761;42.126;24.752;2022-10-16T14:19:24;100520.41;;;22.72;32.75
65175;BME280;51761;42.126;24.752;2022-10-16T14:21:51;100536.97;;;22.50;32.59
65175;BME280;51761;42.126;24.752;2022-10-16T14:24:36;100541.63;;;22.30;32.59
65175;BME280;51761;42.126;24.752;2022-10-16T14:27:02;100537.06;;;22.23;33.14
65175;BME280;51761;42.126;24.752;2022-10-16T14:29:29;100544.69;;;22.08;33.40